sensor_id;sensor_type;location;lat;lon;timestamp;P1;durP1;ratioP1;P2;durP2;ratioP2
25341;SDS011;13298;48.792;9.154;2022-09-16T00:00:16;5.03;;;3.40;;
25341;SDS011;13298;48.792;9.154;2022-09-16T00:02:42;5.55;;;3.40;;
25341;SDS011;13298;48.792;9.154;2022-09-16T00:05:08;4.85;;;3.10;;
25341;SDS011;13298;48.792;9.154;2022-09-16T00:07:34;4.13;;;3.03;;
25341;SDS011;13298;48.792;9.154;2022-09-16T00:10:00;4.78;;;3.33;;
25341;SDS011;13298;48.792;9.154;2022-09-16T00:12:26;6.85;;;3.50;;
25341;SDS011;13298;48.792;9.154;2022-09-16T00:14:52;5.88;;;2.95;;
25341;SDS011;13298;48.792;9.154;2022-09-16T00:17:18;5.13;;;3.15;;
25341;SDS011;13298;48.792;9.154;2022-09-16T00:19:44;6.57;;;3.10;;
25341;SDS011;13298;48.792;9.154;2022-09-16T00:22:10;4.55;;;3.13;;
25341;SDS011;13298;48.792;9.154;2022-09-16T00:24:36;8.23;;;3.58;;
25341;SDS011;13298;48.792;9.154;2022-09-16T00:27:02;9.55;;;3.55;;
25341;SDS011;13298;48.792;9.154;2022-09-16T00:29:28;6.60;;;4.00;;
25341;SDS011;13298;48.792;9.154;2022-09-16T00:31:53;7.05;;;3.30;;
25341;SDS011;13298;48.792;9.154;2022-09-16T00:34:19;8.20;;;3.42;;
25341;SDS011;13298;48.792;9.154;2022-09-16T00:36:45;6.22;;;4.07;;
25341;SDS011;13298;48.792;9.154;2022-09-16T00:39:11;10.25;;;3.92;;
25341;SDS011;13298;48.792;9.154;2022-09-16T00:41:36;10.52;;;4.05;;
25341;SDS011;13298;48.792;9.154;2022-09-16T00:44:04;11.60;;;4.75;;
25341;SDS011;13298;48.792;9.154;2022-09-16T00:46:51;6.65;;;4.30;;
25341;SDS011;13298;48.792;9.154;2022-09-16T00:49:24;11.93;;;4.90;;
25341;SDS011;13298;48.792;9.154;2022-09-16T00:51:55;6.93;;;4.80;;
25341;SDS011;13298;48.792;9.154;2022-09-16T00:54:25;7.95;;;5.45;;
25341;SDS011;13298;48.792;9.154;2022-09-16T00:56:52;10.25;;;4.72;;
25341;SDS011;13298;48.792;9.154;2022-09-16T00:59:24;6.35;;;4.55;;
25341;SDS011;13298;48.792;9.154;2022-09-16T01:01:54;7.95;;;4.55;;
25341;SDS011;13298;48.792;9.154;2022-09-16T01:04:24;8.43;;;4.50;;
25341;SDS011;13298;48.792;9.154;2022-09-16T01:07:01;10.20;;;4.18;;
25341;SDS011;13298;48.792;9.154;2022-09-16T01:09:27;9.60;;;5.00;;
25341;SDS011;13298;48.792;9.154;2022-09-16T01:11:54;6.60;;;4.60;;
25341;SDS011;13298;48.792;9.154;2022-09-16T01:14:20;8.70;;;4.38;;
25341;SDS011;13298;48.792;9.154;2022-09-16T01:17:14;8.63;;;4.72;;
25341;SDS011;13298;48.792;9.154;2022-09-16T01:20:25;6.45;;;4.55;;
25341;SDS011;13298;48.792;9.154;2022-09-16T01:23:33;7.28;;;4.63;;
25341;SDS011;13298;48.792;9.154;2022-09-16T01:29:20;6.22;;;4.47;;
25341;SDS011;13298;48.792;9.154;2022-09-16T01:35:03;8.43;;;4.88;;
25341;SDS011;13298;48.792;9.154;2022-09-16T01:37:58;5.05;;;4.00;;
25341;SDS011;13298;48.792;9.154;2022-09-16T01:49:33;9.75;;;5.05;;
25341;SDS011;13298;48.792;9.154;2022-09-16T01:52:08;9.30;;;5.32;;
25341;SDS011;13298;48.792;9.154;2022-09-16T01:54:46;10.50;;;5.07;;
25341;SDS011;13298;48.792;9.154;2022-09-16T01:57:22;12.82;;;5.25;;
25341;SDS011;13298;48.792;9.154;2022-09-16T02:00:11;14.98;;;5.68;;
25341;SDS011;13298;48.792;9.154;2022-09-16T02:02:46;9.02;;;5.45;;
25341;SDS011;13298;48.792;9.154;2022-09-16T02:05:24;7.38;;;4.97;;
25341;SDS011;13298;48.792;9.154;2022-09-16T02:08:01;7.50;;;4.45;;
25341;SDS011;13298;48.792;9.154;2022-09-16T02:10:35;5.85;;;4.88;;
25341;SDS011;13298;48.792;9.154;2022-09-16T02:13:19;8.45;;;5.18;;
25341;SDS011;13298;48.792;9.154;2022-09-16T02:15:50;8.40;;;4.68;;
25341;SDS011;13298;48.792;9.154;2022-09-16T02:18:20;7.88;;;5.00;;
25341;SDS011;13298;48.792;9.154;2022-09-16T02:20:51;12.10;;;4.72;;
25341;SDS011;13298;48.792;9.154;2022-09-16T02:23:21;11.98;;;4.35;;
25341;SDS011;13298;48.792;9.154;2022-09-16T02:25:51;6.70;;;4.07;;
25341;SDS011;13298;48.792;9.154;2022-09-16T02:28:20;6.05;;;3.80;;
25341;SDS011;13298;48.792;9.154;2022-09-16T02:30:54;6.97;;;4.30;;
25341;SDS011;13298;48.792;9.154;2022-09-16T02:33:23;6.18;;;3.60;;
25341;SDS011;13298;48.792;9.154;2022-09-16T02:36:02;8.18;;;3.97;;
25341;SDS011;13298;48.792;9.154;2022-09-16T02:38:31;7.97;;;3.80;;
25341;SDS011;13298;48.792;9.154;2022-09-16T02:41:02;7.00;;;3.88;;
25341;SDS011;13298;48.792;9.154;2022-09-16T02:43:29;5.03;;;3.50;;
25341;SDS011;13298;48.792;9.154;2022-09-16T02:46:15;5.97;;;3.75;;
25341;SDS011;13298;48.792;9.154;2022-09-16T02:51:26;6.10;;;3.50;;
25341;SDS011;13298;48.792;9.154;2022-09-16T02:54:08;5.93;;;3.17;;
25341;SDS011;13298;48.792;9.154;2022-09-16T02:56:42;6.85;;;3.25;;
25341;SDS011;13298;48.792;9.154;2022-09-16T02:59:09;7.20;;;3.10;;
25341;SDS011;13298;48.792;9.154;2022-09-16T03:01:40;10.77;;;3.22;;
25341;SDS011;13298;48.792;9.154;2022-09-16T03:04:11;8.63;;;3.65;;
25341;SDS011;13298;48.792;9.154;2022-09-16T03:06:40;5.07;;;3.10;;
25341;SDS011;13298;48.792;9.154;2022-09-16T03:09:10;5.90;;;3.55;;
25341;SDS011;13298;48.792;9.154;2022-09-16T03:14:33;6.05;;;3.47;;
25341;SDS011;13298;48.792;9.154;2022-09-16T03:17:40;6.47;;;3.50;;
25341;SDS011;13298;48.792;9.154;2022-09-16T03:20:58;5.80;;;2.83;;
25341;SDS011;13298;48.792;9.154;2022-09-16T03:24:05;6.80;;;3.20;;
25341;SDS011;13298;48.792;9.154;2022-09-16T03:26:58;5.70;;;3.20;;
25341;SDS011;13298;48.792;9.154;2022-09-16T03:29:54;7.68;;;3.15;;
25341;SDS011;13298;48.792;9.154;2022-09-16T03:32:33;6.63;;;2.80;;
25341;SDS011;13298;48.792;9.154;2022-09-16T03:35:16;4.20;;;2.70;;
25341;SDS011;13298;48.792;9.154;2022-09-16T03:38:09;3.78;;;2.35;;
25341;SDS011;13298;48.792;9.154;2022-09-16T03:40:37;3.30;;;2.38;;
25341;SDS011;13298;48.792;9.154;2022-09-16T03:43:11;4.43;;;2.58;;
25341;SDS011;13298;48.792;9.154;2022-09-16T03:45:40;5.57;;;2.28;;
25341;SDS011;13298;48.792;9.154;2022-09-16T03:48:06;4.25;;;2.40;;
25341;SDS011;13298;48.792;9.154;2022-09-16T03:50:33;3.90;;;2.30;;
25341;SDS011;13298;48.792;9.154;2022-09-16T03:53:00;4.15;;;2.63;;
25341;SDS011;13298;48.792;9.154;2022-09-16T03:55:26;5.03;;;2.30;;
25341;SDS011;13298;48.792;9.154;2022-09-16T03:57:52;3.08;;;2.17;;
25341;SDS011;13298;48.792;9.154;2022-09-16T04:00:19;4.07;;;2.22;;
25341;SDS011;13298;48.792;9.154;2022-09-16T04:02:45;5.55;;;2.40;;
25341;SDS011;13298;48.792;9.154;2022-09-16T04:05:11;2.42;;;2.03;;
25341;SDS011;13298;48.792;9.154;2022-09-16T04:07:36;3.22;;;2.00;;
25341;SDS011;13298;48.792;9.154;2022-09-16T04:10:03;2.47;;;2.00;;
25341;SDS011;13298;48.792;9.154;2022-09-16T04:12:30;2.75;;;1.92;;
25341;SDS011;13298;48.792;9.154;2022-09-16T04:14:56;3.22;;;1.83;;
25341;SDS011;13298;48.792;9.154;2022-09-16T04:17:21;4.13;;;2.17;;
25341;SDS011;13298;48.792;9.154;2022-09-16T04:19:48;4.28;;;1.98;;
25341;SDS011;13298;48.792;9.154;2022-09-16T04:22:14;4.03;;;2.15;;
25341;SDS011;13298;48.792;9.154;2022-09-16T04:24:39;2.25;;;1.95;;
25341;SDS011;13298;48.792;9.154;2022-09-16T04:27:05;4.93;;;1.80;;
25341;SDS011;13298;48.792;9.154;2022-09-16T04:29:31;3.45;;;2.20;;
25341;SDS011;13298;48.792;9.154;2022-09-16T04:31:57;6.65;;;2.30;;
25341;SDS011;13298;48.792;9.154;2022-09-16T04:34:23;5.75;;;2.10;;
25341;SDS011;13298;48.792;9.154;2022-09-16T04:36:48;3.60;;;2.00;;
25341;SDS011;13298;48.792;9.154;2022-09-16T04:39:14;2.70;;;1.90;;
25341;SDS011;13298;48.792;9.154;2022-09-16T04:41:40;14.95;;;2.47;;
25341;SDS011;13298;48.792;9.154;2022-09-16T04:44:05;2.15;;;1.85;;
25341;SDS011;13298;48.792;9.154;2022-09-16T04:46:31;3.38;;;2.15;;
25341;SDS011;13298;48.792;9.154;2022-09-16T04:48:57;4.68;;;1.98;;
25341;SDS011;13298;48.792;9.154;2022-09-16T04:51:24;4.07;;;1.80;;
25341;SDS011;13298;48.792;9.154;2022-09-16T04:53:52;3.10;;;2.28;;
25341;SDS011;13298;48.792;9.154;2022-09-16T04:56:22;8.02;;;2.58;;
25341;SDS011;13298;48.792;9.154;2022-09-16T04:58:51;11.95;;;2.40;;
25341;SDS011;13298;48.792;9.154;2022-09-16T05:01:20;4.10;;;2.25;;
25341;SDS011;13298;48.792;9.154;2022-09-16T05:03:49;4.38;;;2.17;;
25341;SDS011;13298;48.792;9.154;2022-09-16T05:06:18;6.50;;;2.00;;
25341;SDS011;13298;48.792;9.154;2022-09-16T05:08:47;4.78;;;2.05;;
25341;SDS011;13298;48.792;9.154;2022-09-16T05:11:16;7.80;;;1.92;;
25341;SDS011;13298;48.792;9.154;2022-09-16T05:16:14;10.43;;;2.42;;
25341;SDS011;13298;48.792;9.154;2022-09-16T05:18:42;3.05;;;1.90;;
25341;SDS011;13298;48.792;9.154;2022-09-16T05:21:11;5.68;;;1.95;;
25341;SDS011;13298;48.792;9.154;2022-09-16T05:23:42;2.55;;;1.90;;
25341;SDS011;13298;48.792;9.154;2022-09-16T05:26:09;5.50;;;2.10;;
25341;SDS011;13298;48.792;9.154;2022-09-16T05:28:46;5.63;;;2.30;;
25341;SDS011;13298;48.792;9.154;2022-09-16T05:34:11;4.75;;;2.53;;
25341;SDS011;13298;48.792;9.154;2022-09-16T05:36:42;3.40;;;2.55;;
25341;SDS011;13298;48.792;9.154;2022-09-16T05:39:11;3.55;;;2.60;;
25341;SDS011;13298;48.792;9.154;2022-09-16T05:41:38;3.33;;;2.50;;
25341;SDS011;13298;48.792;9.154;2022-09-16T05:44:03;5.95;;;2.80;;
25341;SDS011;13298;48.792;9.154;2022-09-16T05:46:33;5.75;;;3.30;;
25341;SDS011;13298;48.792;9.154;2022-09-16T05:48:59;4.78;;;2.90;;
25341;SDS011;13298;48.792;9.154;2022-09-16T05:51:25;6.80;;;3.65;;
25341;SDS011;13298;48.792;9.154;2022-09-16T05:53:51;8.43;;;3.08;;
25341;SDS011;13298;48.792;9.154;2022-09-16T05:56:19;3.28;;;2.22;;
25341;SDS011;13298;48.792;9.154;2022-09-16T05:58:53;3.53;;;2.20;;
25341;SDS011;13298;48.792;9.154;2022-09-16T06:01:24;4.13;;;2.55;;
25341;SDS011;13298;48.792;9.154;2022-09-16T06:03:53;7.45;;;3.17;;
25341;SDS011;13298;48.792;9.154;2022-09-16T06:06:21;5.35;;;2.50;;
25341;SDS011;13298;48.792;9.154;2022-09-16T06:08:47;6.95;;;2.90;;
25341;SDS011;13298;48.792;9.154;2022-09-16T06:11:13;3.03;;;2.30;;
25341;SDS011;13298;48.792;9.154;2022-09-16T06:13:39;3.85;;;2.45;;
25341;SDS011;13298;48.792;9.154;2022-09-16T06:16:05;5.28;;;2.65;;
25341;SDS011;13298;48.792;9.154;2022-09-16T06:18:32;5.28;;;2.88;;
25341;SDS011;13298;48.792;9.154;2022-09-16T06:21:01;5.53;;;3.00;;
25341;SDS011;13298;48.792;9.154;2022-09-16T06:23:36;4.63;;;2.58;;
25341;SDS011;13298;48.792;9.154;2022-09-16T06:26:08;4.68;;;2.53;;
25341;SDS011;13298;48.792;9.154;2022-09-16T06:28:39;2.67;;;2.40;;
25341;SDS011;13298;48.792;9.154;2022-09-16T06:31:07;6.22;;;2.90;;
25341;SDS011;13298;48.792;9.154;2022-09-16T06:33:37;3.70;;;2.95;;
25341;SDS011;13298;48.792;9.154;2022-09-16T06:36:07;4.40;;;2.88;;
25341;SDS011;13298;48.792;9.154;2022-09-16T06:38:41;4.28;;;2.67;;
25341;SDS011;13298;48.792;9.154;2022-09-16T06:41:09;5.93;;;3.38;;
25341;SDS011;13298;48.792;9.154;2022-09-16T06:43:36;5.03;;;3.42;;
25341;SDS011;13298;48.792;9.154;2022-09-16T06:46:04;4.60;;;3.00;;
25341;SDS011;13298;48.792;9.154;2022-09-16T06:48:43;8.55;;;3.35;;
25341;SDS011;13298;48.792;9.154;2022-09-16T06:51:18;4.68;;;2.63;;
25341;SDS011;13298;48.792;9.154;2022-09-16T06:53:53;7.40;;;2.80;;
25341;SDS011;13298;48.792;9.154;2022-09-16T06:56:22;7.78;;;3.05;;
25341;SDS011;13298;48.792;9.154;2022-09-16T06:58:49;6.95;;;2.60;;
25341;SDS011;13298;48.792;9.154;2022-09-16T07:01:18;3.75;;;2.60;;
25341;SDS011;13298;48.792;9.154;2022-09-16T07:03:47;6.20;;;2.80;;
25341;SDS011;13298;48.792;9.154;2022-09-16T07:06:16;5.30;;;2.67;;
25341;SDS011;13298;48.792;9.154;2022-09-16T07:08:43;5.53;;;3.03;;
25341;SDS011;13298;48.792;9.154;2022-09-16T07:11:13;4.95;;;2.97;;
25341;SDS011;13298;48.792;9.154;2022-09-16T07:13:43;4.85;;;2.88;;
25341;SDS011;13298;48.792;9.154;2022-09-16T07:16:14;5.13;;;2.65;;
25341;SDS011;13298;48.792;9.154;2022-09-16T07:18:46;7.68;;;3.22;;
25341;SDS011;13298;48.792;9.154;2022-09-16T07:21:16;5.88;;;3.83;;
25341;SDS011;13298;48.792;9.154;2022-09-16T07:23:43;6.18;;;3.35;;
25341;SDS011;13298;48.792;9.154;2022-09-16T07:26:12;8.85;;;3.80;;
25341;SDS011;13298;48.792;9.154;2022-09-16T07:28:43;9.13;;;3.15;;
25341;SDS011;13298;48.792;9.154;2022-09-16T07:31:12;4.20;;;3.08;;
25341;SDS011;13298;48.792;9.154;2022-09-16T07:33:44;7.45;;;3.55;;
25341;SDS011;13298;48.792;9.154;2022-09-16T07:36:13;5.53;;;3.58;;
25341;SDS011;13298;48.792;9.154;2022-09-16T07:38:41;6.38;;;3.15;;
25341;SDS011;13298;48.792;9.154;2022-09-16T07:41:09;7.22;;;3.50;;
25341;SDS011;13298;48.792;9.154;2022-09-16T07:43:41;7.22;;;3.97;;
25341;SDS011;13298;48.792;9.154;2022-09-16T07:46:08;6.18;;;3.90;;
25341;SDS011;13298;48.792;9.154;2022-09-16T07:48:36;8.85;;;4.22;;
25341;SDS011;13298;48.792;9.154;2022-09-16T07:51:05;5.43;;;3.10;;
25341;SDS011;13298;48.792;9.154;2022-09-16T07:53:34;7.38;;;3.13;;
25341;SDS011;13298;48.792;9.154;2022-09-16T07:56:05;4.95;;;2.78;;
25341;SDS011;13298;48.792;9.154;2022-09-16T07:58:37;8.43;;;4.25;;
25341;SDS011;13298;48.792;9.154;2022-09-16T08:01:04;5.72;;;3.45;;
25341;SDS011;13298;48.792;9.154;2022-09-16T08:03:32;6.20;;;3.60;;
25341;SDS011;13298;48.792;9.154;2022-09-16T08:05:59;5.13;;;3.40;;
25341;SDS011;13298;48.792;9.154;2022-09-16T08:08:27;6.22;;;3.90;;
25341;SDS011;13298;48.792;9.154;2022-09-16T08:10:54;8.93;;;4.53;;
25341;SDS011;13298;48.792;9.154;2022-09-16T08:13:21;7.30;;;4.20;;
25341;SDS011;13298;48.792;9.154;2022-09-16T08:15:47;4.82;;;3.25;;
25341;SDS011;13298;48.792;9.154;2022-09-16T08:18:13;9.15;;;3.65;;
25341;SDS011;13298;48.792;9.154;2022-09-16T08:20:39;10.10;;;4.55;;
25341;SDS011;13298;48.792;9.154;2022-09-16T08:23:04;7.63;;;4.13;;
25341;SDS011;13298;48.792;9.154;2022-09-16T08:25:30;5.00;;;2.95;;
25341;SDS011;13298;48.792;9.154;2022-09-16T08:27:56;6.43;;;3.88;;
25341;SDS011;13298;48.792;9.154;2022-09-16T08:30:22;8.15;;;4.07;;
25341;SDS011;13298;48.792;9.154;2022-09-16T08:32:54;4.45;;;3.08;;
25341;SDS011;13298;48.792;9.154;2022-09-16T08:35:21;10.98;;;3.92;;
25341;SDS011;13298;48.792;9.154;2022-09-16T08:37:47;4.88;;;4.00;;
25341;SDS011;13298;48.792;9.154;2022-09-16T08:40:13;5.15;;;3.78;;
25341;SDS011;13298;48.792;9.154;2022-09-16T08:45:41;8.40;;;3.83;;
25341;SDS011;13298;48.792;9.154;2022-09-16T08:51:14;8.33;;;4.17;;
25341;SDS011;13298;48.792;9.154;2022-09-16T08:54:01;7.85;;;4.20;;
25341;SDS011;13298;48.792;9.154;2022-09-16T08:56:34;4.10;;;2.95;;
25341;SDS011;13298;48.792;9.154;2022-09-16T08:59:02;5.93;;;3.38;;
25341;SDS011;13298;48.792;9.154;2022-09-16T09:04:12;9.38;;;3.70;;
25341;SDS011;13298;48.792;9.154;2022-09-16T09:15:49;3.63;;;2.50;;
25341;SDS011;13298;48.792;9.154;2022-09-16T09:18:50;6.72;;;2.92;;
25341;SDS011;13298;48.792;9.154;2022-09-16T09:21:40;7.20;;;3.20;;
25341;SDS011;13298;48.792;9.154;2022-09-16T09:24:55;3.90;;;2.65;;
25341;SDS011;13298;48.792;9.154;2022-09-16T09:35:55;5.72;;;2.65;;
25341;SDS011;13298;48.792;9.154;2022-09-16T09:38:50;5.03;;;2.72;;
25341;SDS011;13298;48.792;9.154;2022-09-16T09:47:32;5.80;;;2.80;;
25341;SDS011;13298;48.792;9.154;2022-09-16T09:50:08;8.45;;;3.50;;
25341;SDS011;13298;48.792;9.154;2022-09-16T09:55:37;5.03;;;3.35;;
25341;SDS011;13298;48.792;9.154;2022-09-16T10:00:45;4.50;;;2.70;;
25341;SDS011;13298;48.792;9.154;2022-09-16T10:03:13;4.78;;;2.45;;
25341;SDS011;13298;48.792;9.154;2022-09-16T10:05:43;7.05;;;2.70;;
25341;SDS011;13298;48.792;9.154;2022-09-16T10:08:16;4.30;;;2.28;;
25341;SDS011;13298;48.792;9.154;2022-09-16T10:10:56;6.35;;;2.83;;
25341;SDS011;13298;48.792;9.154;2022-09-16T10:13:25;5.63;;;2.60;;
25341;SDS011;13298;48.792;9.154;2022-09-16T10:16:04;4.35;;;2.50;;
25341;SDS011;13298;48.792;9.154;2022-09-16T10:18:39;4.65;;;2.33;;
25341;SDS011;13298;48.792;9.154;2022-09-16T10:21:05;4.68;;;2.65;;
25341;SDS011;13298;48.792;9.154;2022-09-16T10:23:38;7.80;;;2.90;;
25341;SDS011;13298;48.792;9.154;2022-09-16T10:26:05;5.07;;;2.60;;
25341;SDS011;13298;48.792;9.154;2022-09-16T10:31:27;5.57;;;2.90;;
25341;SDS011;13298;48.792;9.154;2022-09-16T10:34:01;5.55;;;3.00;;
25341;SDS011;13298;48.792;9.154;2022-09-16T10:36:33;3.95;;;2.55;;
25341;SDS011;13298;48.792;9.154;2022-09-16T10:39:00;4.15;;;2.53;;
25341;SDS011;13298;48.792;9.154;2022-09-16T10:41:48;3.17;;;2.50;;
25341;SDS011;13298;48.792;9.154;2022-09-16T10:44:21;4.25;;;2.78;;
25341;SDS011;13298;48.792;9.154;2022-09-16T10:46:52;8.73;;;2.90;;
25341;SDS011;13298;48.792;9.154;2022-09-16T10:52:16;3.47;;;2.42;;
25341;SDS011;13298;48.792;9.154;2022-09-16T10:54:46;4.97;;;2.78;;
25341;SDS011;13298;48.792;9.154;2022-09-16T11:00:09;4.90;;;2.22;;
25341;SDS011;13298;48.792;9.154;2022-09-16T11:08:52;4.75;;;2.45;;
25341;SDS011;13298;48.792;9.154;2022-09-16T11:11:42;4.80;;;2.25;;
25341;SDS011;13298;48.792;9.154;2022-09-16T11:17:39;6.93;;;2.28;;
25341;SDS011;13298;48.792;9.154;2022-09-16T11:29:45;4.10;;;2.35;;
25341;SDS011;13298;48.792;9.154;2022-09-16T11:46:59;5.75;;;2.55;;
25341;SDS011;13298;48.792;9.154;2022-09-16T11:49:44;2.42;;;1.70;;
25341;SDS011;13298;48.792;9.154;2022-09-16T11:52:32;7.38;;;1.55;;
25341;SDS011;13298;48.792;9.154;2022-09-16T12:03:53;6.80;;;1.70;;
25341;SDS011;13298;48.792;9.154;2022-09-16T12:06:43;3.70;;;1.48;;
25341;SDS011;13298;48.792;9.154;2022-09-16T12:09:50;3.50;;;1.70;;
25341;SDS011;13298;48.792;9.154;2022-09-16T12:12:25;3.00;;;1.45;;
25341;SDS011;13298;48.792;9.154;2022-09-16T12:15:19;3.47;;;1.50;;
25341;SDS011;13298;48.792;9.154;2022-09-16T12:17:57;7.20;;;1.55;;
25341;SDS011;13298;48.792;9.154;2022-09-16T12:20:44;3.25;;;1.40;;
25341;SDS011;13298;48.792;9.154;2022-09-16T12:23:16;3.95;;;1.50;;
25341;SDS011;13298;48.792;9.154;2022-09-16T12:28:34;4.80;;;1.30;;
25341;SDS011;13298;48.792;9.154;2022-09-16T12:34:22;5.50;;;1.43;;
25341;SDS011;13298;48.792;9.154;2022-09-16T12:37:03;4.50;;;1.52;;
25341;SDS011;13298;48.792;9.154;2022-09-16T12:39:44;6.75;;;3.67;;
25341;SDS011;13298;48.792;9.154;2022-09-16T12:51:35;2.80;;;1.23;;
25341;SDS011;13298;48.792;9.154;2022-09-16T13:05:26;4.15;;;1.40;;
25341;SDS011;13298;48.792;9.154;2022-09-16T13:07:57;4.05;;;1.63;;
25341;SDS011;13298;48.792;9.154;2022-09-16T13:13:00;3.35;;;1.70;;
25341;SDS011;13298;48.792;9.154;2022-09-16T13:15:31;1.85;;;1.35;;
25341;SDS011;13298;48.792;9.154;2022-09-16T13:20:40;2.47;;;1.45;;
25341;SDS011;13298;48.792;9.154;2022-09-16T13:23:21;2.80;;;1.33;;
25341;SDS011;13298;48.792;9.154;2022-09-16T13:26:00;4.07;;;1.52;;
25341;SDS011;13298;48.792;9.154;2022-09-16T13:31:07;5.82;;;1.77;;
25341;SDS011;13298;48.792;9.154;2022-09-16T13:33:37;3.67;;;1.45;;
25341;SDS011;13298;48.792;9.154;2022-09-16T13:36:15;3.92;;;1.60;;
25341;SDS011;13298;48.792;9.154;2022-09-16T13:39:02;2.53;;;1.70;;
25341;SDS011;13298;48.792;9.154;2022-09-16T13:41:35;4.47;;;1.45;;
25341;SDS011;13298;48.792;9.154;2022-09-16T13:47:14;3.05;;;1.55;;
25341;SDS011;13298;48.792;9.154;2022-09-16T13:49:54;2.75;;;1.27;;
25341;SDS011;13298;48.792;9.154;2022-09-16T13:52:23;3.80;;;1.63;;
25341;SDS011;13298;48.792;9.154;2022-09-16T13:54:57;5.15;;;1.63;;
25341;SDS011;13298;48.792;9.154;2022-09-16T14:00:36;11.02;;;3.63;;
25341;SDS011;13298;48.792;9.154;2022-09-16T14:03:29;2.53;;;1.33;;
25341;SDS011;13298;48.792;9.154;2022-09-16T14:09:38;2.28;;;1.40;;
25341;SDS011;13298;48.792;9.154;2022-09-16T14:15:03;3.85;;;1.35;;
25341;SDS011;13298;48.792;9.154;2022-09-16T14:17:43;4.70;;;1.50;;
25341;SDS011;13298;48.792;9.154;2022-09-16T14:20:14;2.50;;;1.10;;
25341;SDS011;13298;48.792;9.154;2022-09-16T14:22:44;3.78;;;1.48;;
25341;SDS011;13298;48.792;9.154;2022-09-16T14:25:24;4.93;;;1.38;;
25341;SDS011;13298;48.792;9.154;2022-09-16T14:28:04;5.40;;;1.63;;
25341;SDS011;13298;48.792;9.154;2022-09-16T14:33:15;3.15;;;1.60;;
25341;SDS011;13298;48.792;9.154;2022-09-16T14:35:46;8.32;;;1.70;;
25341;SDS011;13298;48.792;9.154;2022-09-16T14:38:14;4.50;;;1.40;;
25341;SDS011;13298;48.792;9.154;2022-09-16T14:40:43;2.30;;;1.20;;
25341;SDS011;13298;48.792;9.154;2022-09-16T14:43:13;1.83;;;1.23;;
25341;SDS011;13298;48.792;9.154;2022-09-16T14:45:50;5.03;;;1.50;;
25341;SDS011;13298;48.792;9.154;2022-09-16T14:48:19;2.08;;;1.20;;
25341;SDS011;13298;48.792;9.154;2022-09-16T14:50:53;4.15;;;1.33;;
25341;SDS011;13298;48.792;9.154;2022-09-16T14:53:23;2.40;;;1.20;;
25341;SDS011;13298;48.792;9.154;2022-09-16T14:55:51;2.63;;;1.20;;
25341;SDS011;13298;48.792;9.154;2022-09-16T14:58:17;2.17;;;1.63;;
25341;SDS011;13298;48.792;9.154;2022-09-16T15:00:46;1.80;;;1.17;;
25341;SDS011;13298;48.792;9.154;2022-09-16T15:06:14;6.05;;;1.50;;
25341;SDS011;13298;48.792;9.154;2022-09-16T15:08:48;3.22;;;1.20;;
25341;SDS011;13298;48.792;9.154;2022-09-16T15:11:25;3.40;;;1.25;;
25341;SDS011;13298;48.792;9.154;2022-09-16T15:13:55;3.28;;;1.60;;
25341;SDS011;13298;48.792;9.154;2022-09-16T15:16:22;1.95;;;1.20;;
25341;SDS011;13298;48.792;9.154;2022-09-16T15:21:27;4.03;;;1.30;;
25341;SDS011;13298;48.792;9.154;2022-09-16T15:23:56;3.13;;;1.17;;
25341;SDS011;13298;48.792;9.154;2022-09-16T15:26:25;4.85;;;1.48;;
25341;SDS011;13298;48.792;9.154;2022-09-16T15:29:04;7.55;;;1.77;;
25341;SDS011;13298;48.792;9.154;2022-09-16T15:31:51;7.20;;;1.60;;
25341;SDS011;13298;48.792;9.154;2022-09-16T15:36:46;4.00;;;1.60;;
25341;SDS011;13298;48.792;9.154;2022-09-16T15:42:04;5.65;;;1.60;;
25341;SDS011;13298;48.792;9.154;2022-09-16T15:44:54;5.67;;;1.20;;
25341;SDS011;13298;48.792;9.154;2022-09-16T15:47:27;5.10;;;1.17;;
25341;SDS011;13298;48.792;9.154;2022-09-16T15:49:59;3.05;;;1.35;;
25341;SDS011;13298;48.792;9.154;2022-09-16T15:52:31;3.00;;;1.17;;
25341;SDS011;13298;48.792;9.154;2022-09-16T15:55:11;2.65;;;1.42;;
25341;SDS011;13298;48.792;9.154;2022-09-16T15:57:38;3.42;;;1.23;;
25341;SDS011;13298;48.792;9.154;2022-09-16T16:00:07;2.72;;;1.13;;
25341;SDS011;13298;48.792;9.154;2022-09-16T16:02:42;2.22;;;1.25;;
25341;SDS011;13298;48.792;9.154;2022-09-16T16:05:18;3.95;;;1.48;;
25341;SDS011;13298;48.792;9.154;2022-09-16T16:11:10;2.88;;;1.50;;
25341;SDS011;13298;48.792;9.154;2022-09-16T16:13:38;3.55;;;1.40;;
25341;SDS011;13298;48.792;9.154;2022-09-16T16:16:05;4.82;;;1.73;;
25341;SDS011;13298;48.792;9.154;2022-09-16T16:18:32;5.30;;;1.40;;
25341;SDS011;13298;48.792;9.154;2022-09-16T16:21:03;7.15;;;1.80;;
25341;SDS011;13298;48.792;9.154;2022-09-16T16:23:35;3.75;;;1.42;;
25341;SDS011;13298;48.792;9.154;2022-09-16T16:26:04;5.10;;;1.40;;
25341;SDS011;13298;48.792;9.154;2022-09-16T16:28:32;2.70;;;1.33;;
25341;SDS011;13298;48.792;9.154;2022-09-16T16:31:15;3.42;;;1.42;;
25341;SDS011;13298;48.792;9.154;2022-09-16T16:33:42;2.25;;;1.38;;
25341;SDS011;13298;48.792;9.154;2022-09-16T16:36:11;5.78;;;1.42;;
25341;SDS011;13298;48.792;9.154;2022-09-16T16:38:38;5.05;;;1.40;;
25341;SDS011;13298;48.792;9.154;2022-09-16T16:41:05;6.32;;;1.50;;
25341;SDS011;13298;48.792;9.154;2022-09-16T16:43:32;3.25;;;1.05;;
25341;SDS011;13298;48.792;9.154;2022-09-16T16:45:58;5.50;;;1.45;;
25341;SDS011;13298;48.792;9.154;2022-09-16T16:48:25;3.47;;;1.30;;
25341;SDS011;13298;48.792;9.154;2022-09-16T16:51:02;4.10;;;1.05;;
25341;SDS011;13298;48.792;9.154;2022-09-16T16:53:31;2.53;;;1.20;;
25341;SDS011;13298;48.792;9.154;2022-09-16T16:56:05;4.13;;;1.30;;
25341;SDS011;13298;48.792;9.154;2022-09-16T16:58:35;3.67;;;1.20;;
25341;SDS011;13298;48.792;9.154;2022-09-16T17:01:08;4.25;;;1.45;;
25341;SDS011;13298;48.792;9.154;2022-09-16T17:03:36;3.42;;;1.45;;
25341;SDS011;13298;48.792;9.154;2022-09-16T17:06:02;3.05;;;1.33;;
25341;SDS011;13298;48.792;9.154;2022-09-16T17:08:28;3.95;;;1.52;;
25341;SDS011;13298;48.792;9.154;2022-09-16T17:13:51;4.00;;;1.52;;
25341;SDS011;13298;48.792;9.154;2022-09-16T17:16:21;3.17;;;1.58;;
25341;SDS011;13298;48.792;9.154;2022-09-16T17:18:49;6.88;;;1.55;;
25341;SDS011;13298;48.792;9.154;2022-09-16T17:21:16;3.70;;;1.48;;
25341;SDS011;13298;48.792;9.154;2022-09-16T17:23:54;4.97;;;1.00;;
25341;SDS011;13298;48.792;9.154;2022-09-16T17:26:21;5.00;;;1.10;;
25341;SDS011;13298;48.792;9.154;2022-09-16T17:28:48;3.00;;;1.33;;
25341;SDS011;13298;48.792;9.154;2022-09-16T17:33:44;2.92;;;1.02;;
25341;SDS011;13298;48.792;9.154;2022-09-16T17:36:11;1.75;;;0.88;;
25341;SDS011;13298;48.792;9.154;2022-09-16T17:38:40;0.80;;;0.73;;
25341;SDS011;13298;48.792;9.154;2022-09-16T17:41:08;0.90;;;0.68;;
25341;SDS011;13298;48.792;9.154;2022-09-16T17:43:36;3.75;;;1.00;;
25341;SDS011;13298;48.792;9.154;2022-09-16T17:46:04;2.00;;;1.20;;
25341;SDS011;13298;48.792;9.154;2022-09-16T17:48:32;3.15;;;1.15;;
25341;SDS011;13298;48.792;9.154;2022-09-16T17:51:00;1.58;;;1.00;;
25341;SDS011;13298;48.792;9.154;2022-09-16T17:53:26;3.63;;;2.10;;
25341;SDS011;13298;48.792;9.154;2022-09-16T17:55:51;3.53;;;1.08;;
25341;SDS011;13298;48.792;9.154;2022-09-16T17:58:25;4.10;;;0.90;;
25341;SDS011;13298;48.792;9.154;2022-09-16T18:00:51;0.98;;;0.88;;
25341;SDS011;13298;48.792;9.154;2022-09-16T18:03:17;2.45;;;1.00;;
25341;SDS011;13298;48.792;9.154;2022-09-16T18:05:43;1.10;;;0.85;;
25341;SDS011;13298;48.792;9.154;2022-09-16T18:08:09;4.03;;;1.00;;
25341;SDS011;13298;48.792;9.154;2022-09-16T18:10:34;1.02;;;0.85;;
25341;SDS011;13298;48.792;9.154;2022-09-16T18:13:00;3.65;;;1.60;;
25341;SDS011;13298;48.792;9.154;2022-09-16T18:15:27;4.60;;;1.05;;
25341;SDS011;13298;48.792;9.154;2022-09-16T18:17:53;3.30;;;0.88;;
25341;SDS011;13298;48.792;9.154;2022-09-16T18:20:19;3.50;;;0.90;;